createdAt,value
2018-07-08T00:59:33.984Z,99.90
2018-07-08T01:04:31.058Z,99.90
2018-07-08T01:07:00.696Z,99.90
2018-07-08T01:09:29.228Z,99.90
2018-07-08T01:11:57.862Z,99.90
2018-07-08T01:14:27.249Z,99.90
2018-07-08T01:16:55.701Z,99.90
2018-07-08T01:19:24.920Z,99.90
2018-07-08T01:21:53.469Z,99.90
2018-07-08T01:24:22.283Z,99.90
2018-07-08T01:26:51.005Z,99.90
2018-07-08T01:29:19.444Z,99.90
2018-07-08T01:31:48.133Z,99.90
2018-07-08T01:34:16.529Z,99.90
2018-07-08T01:36:45.476Z,99.90
2018-07-08T01:39:14.089Z,99.90
2018-07-08T01:41:42.772Z,99.90
2018-07-08T01:44:11.216Z,99.90
2018-07-08T01:46:39.744Z,99.90
2018-07-08T01:49:08.372Z,99.90
2018-07-08T01:51:37.928Z,99.90
2018-07-08T01:54:06.404Z,99.90
2018-07-08T01:56:34.972Z,99.90
2018-07-08T01:59:03.372Z,99.90
2018-07-08T02:01:32.185Z,99.90
2018-07-08T02:04:00.632Z,99.90
2018-07-08T02:06:29.434Z,99.90
2018-07-08T02:08:58.536Z,99.90
2018-07-08T02:11:27.147Z,99.90
2018-07-08T02:13:56.725Z,99.90
2018-07-08T02:16:25.457Z,99.90
2018-07-08T02:18:54.151Z,99.90
2018-07-08T02:21:23.611Z,99.90
2018-07-08T02:23:52.300Z,99.90
2018-07-08T02:26:20.839Z,99.90
2018-07-08T02:28:49.874Z,99.90
2018-07-08T02:31:19.922Z,99.90
2018-07-08T02:33:48.768Z,99.90
2018-07-08T02:36:17.761Z,99.90
2018-07-08T02:38:46.467Z,99.90
2018-07-08T02:41:15.343Z,99.90
2018-07-08T02:43:43.797Z,99.90
2018-07-08T02:46:13.749Z,99.90
2018-07-08T02:48:42.456Z,99.90
2018-07-08T02:51:11.083Z,99.90
2018-07-08T02:53:40.581Z,99.90
2018-07-08T02:56:09.040Z,99.90
2018-07-08T02:58:37.842Z,99.90
2018-07-08T03:01:06.289Z,99.90
2018-07-08T03:03:34.968Z,99.90
2018-07-08T03:06:03.598Z,99.90
2018-07-08T03:08:33.123Z,99.90
2018-07-08T03:11:01.522Z,99.90
2018-07-08T03:13:30.193Z,99.90
2018-07-08T03:15:59.179Z,99.90
2018-07-08T03:18:28.070Z,99.90
2018-07-08T03:20:56.527Z,99.90
2018-07-08T03:23:26.237Z,99.90
2018-07-08T03:25:54.645Z,99.90
2018-07-08T03:28:23.078Z,99.90
2018-07-08T03:30:51.508Z,99.90
2018-07-08T03:33:20.417Z,99.90
2018-07-08T03:35:49.024Z,99.90
2018-07-08T03:38:17.839Z,99.90
2018-07-08T03:40:46.263Z,99.90
2018-07-08T03:43:14.903Z,99.90
2018-07-08T03:45:43.804Z,99.90
2018-07-08T03:48:12.455Z,99.90
2018-07-08T03:50:40.945Z,99.90
2018-07-08T03:53:10.579Z,99.90
2018-07-08T03:55:39.437Z,99.90
2018-07-08T03:58:08.075Z,99.90
2018-07-08T04:00:36.496Z,99.90
2018-07-08T04:03:07.699Z,99.90
2018-07-08T04:05:36.494Z,99.90
2018-07-08T04:08:05.282Z,99.90
2018-07-08T04:10:33.751Z,99.90
2018-07-08T04:13:02.516Z,99.90
2018-07-08T04:15:32.340Z,99.90
2018-07-08T04:18:06.620Z,99.90
2018-07-08T04:20:36.068Z,99.90
2018-07-08T04:23:04.788Z,99.90
2018-07-08T04:25:33.753Z,99.90
2018-07-08T04:28:03.176Z,99.90
2018-07-08T04:30:32.151Z,99.90
2018-07-08T04:33:01.399Z,99.90
2018-07-08T04:35:30.496Z,99.90
2018-07-08T04:38:00.274Z,99.90
2018-07-08T04:40:28.889Z,99.90
2018-07-08T04:42:57.717Z,99.90
2018-07-08T04:45:26.541Z,99.90
2018-07-08T04:47:54.955Z,99.90
2018-07-08T04:50:23.487Z,99.90
2018-07-08T04:52:52.265Z,99.90
2018-07-08T04:55:20.870Z,99.90
2018-07-08T04:57:49.792Z,99.90
2018-07-08T05:00:19.408Z,99.90
2018-07-08T05:05:16.701Z,99.90
2018-07-08T05:07:45.336Z,99.90
2018-07-08T05:10:13.749Z,99.90
2018-07-08T05:12:42.459Z,99.90
2018-07-08T05:15:10.911Z,99.90
2018-07-08T05:17:41.783Z,99.90
2018-07-08T05:20:10.364Z,99.90
2018-07-08T05:22:39.149Z,99.90
2018-07-08T05:25:08.017Z,99.90
2018-07-08T05:27:36.848Z,99.90
2018-07-08T05:30:05.465Z,99.90
2018-07-08T05:32:34.817Z,99.90
2018-07-08T05:35:03.860Z,99.90
2018-07-08T05:37:32.750Z,99.90
2018-07-08T05:40:01.765Z,99.90
2018-07-08T05:42:30.625Z,99.90
2018-07-08T05:44:59.089Z,99.90
2018-07-08T05:47:28.274Z,99.90
2018-07-08T05:49:56.807Z,99.90
2018-07-08T05:52:26.780Z,99.90
2018-07-08T05:54:55.380Z,99.90
2018-07-08T05:57:23.915Z,99.90
2018-07-08T05:59:52.526Z,99.90
2018-07-08T06:02:21.161Z,99.90
2018-07-08T06:04:49.576Z,99.90
2018-07-08T06:07:18.406Z,99.90
2018-07-08T06:09:47.005Z,99.90
2018-07-08T06:12:17.149Z,99.90
2018-07-08T06:14:45.892Z,99.90
2018-07-08T06:17:14.578Z,99.90
2018-07-08T06:19:43.047Z,99.90
2018-07-08T06:22:14.593Z,99.90
2018-07-08T06:24:42.974Z,99.90
2018-07-08T06:27:11.824Z,99.90
2018-07-08T06:29:40.381Z,99.90
2018-07-08T06:32:09.190Z,99.90
2018-07-08T06:34:37.672Z,99.90
2018-07-08T06:37:06.799Z,99.90
2018-07-08T06:39:35.184Z,99.90
2018-07-08T06:42:03.916Z,99.90
2018-07-08T06:44:32.881Z,99.90
2018-07-08T06:47:01.292Z,99.90
2018-07-08T06:49:30.293Z,99.90
2018-07-08T06:54:28.646Z,99.90
2018-07-08T06:56:57.066Z,99.90
2018-07-08T06:59:25.808Z,99.90
2018-07-08T07:01:55.063Z,99.90
2018-07-08T07:04:24.492Z,99.90
2018-07-08T07:06:53.759Z,99.90
2018-07-08T07:11:50.504Z,99.90
2018-07-08T07:14:19.147Z,99.90
2018-07-08T07:16:47.710Z,99.90
2018-07-08T07:19:17.316Z,99.90
2018-07-08T07:21:45.740Z,98.30
2018-07-08T07:24:14.210Z,97.50
2018-07-08T07:26:43.204Z,93.30
2018-07-08T07:29:11.984Z,95.10
2018-07-08T07:31:40.388Z,94.90
2018-07-08T07:34:09.225Z,94.00
2018-07-08T07:36:40.859Z,96.00
2018-07-08T07:39:09.589Z,95.90
2018-07-08T07:41:38.946Z,95.90
2018-07-08T07:44:07.875Z,97.40
2018-07-08T07:46:37.568Z,97.80
2018-07-08T07:49:06.656Z,96.00
2018-07-08T07:51:35.300Z,96.10
2018-07-08T07:54:03.853Z,95.70
2018-07-08T07:56:32.727Z,97.50
2018-07-08T07:59:02.326Z,95.60
2018-07-08T08:01:31.055Z,94.40
2018-07-08T08:04:00.106Z,95.10
2018-07-08T08:06:28.856Z,96.00
2018-07-08T08:08:57.270Z,96.00
2018-07-08T08:11:26.109Z,94.40
2018-07-08T08:14:01.469Z,92.50
2018-07-08T08:16:30.600Z,91.90
2018-07-08T08:18:59.646Z,89.30
2018-07-08T08:21:28.342Z,74.50
2018-07-08T08:23:58.202Z,74.50
2018-07-08T08:26:27.570Z,62.60
2018-07-08T08:28:56.921Z,63.00
2018-07-08T08:31:26.087Z,58.20
2018-07-08T08:35:07.739Z,55.90
2018-07-08T08:37:40.581Z,50.90
2018-07-08T08:40:09.891Z,48.70
2018-07-08T08:42:38.532Z,52.90
2018-07-08T08:45:08.848Z,52.00
2018-07-08T08:47:37.949Z,55.70
2018-07-08T08:50:07.392Z,54.10
2018-07-08T08:52:36.712Z,55.00
2018-07-08T08:55:06.251Z,53.40
2018-07-08T08:57:34.697Z,54.60
2018-07-08T09:00:03.385Z,53.70
2018-07-08T09:02:32.085Z,55.60
2018-07-08T09:05:00.596Z,54.70
2018-07-08T09:07:29.254Z,56.50
2018-07-08T09:09:57.791Z,54.60
2018-07-08T09:12:27.195Z,49.20
2018-07-08T09:14:55.728Z,52.40
2018-07-08T09:17:24.370Z,52.20
2018-07-08T09:19:52.994Z,54.00
2018-07-08T09:22:21.655Z,52.90
2018-07-08T09:24:50.920Z,54.90
2018-07-08T09:27:19.683Z,51.80
2018-07-08T09:29:48.640Z,49.90
2018-07-08T09:32:18.393Z,54.10
2018-07-08T09:34:46.805Z,52.10
2018-07-08T09:37:15.389Z,49.90
2018-07-08T09:39:43.832Z,48.80
2018-07-08T09:42:13.155Z,47.10
2018-07-08T09:44:47.086Z,48.30
2018-07-08T09:47:17.488Z,44.20
2018-07-08T09:49:45.884Z,45.80
2018-07-08T09:52:14.588Z,45.90
2018-07-08T09:54:45.772Z,44.90
2018-07-08T09:57:14.449Z,42.60
2018-07-08T09:59:42.927Z,45.30
2018-07-08T10:02:12.663Z,46.10
2018-07-08T10:04:42.509Z,44.00
2018-07-08T10:07:11.215Z,43.30
2018-07-08T10:09:39.935Z,42.50
2018-07-08T10:12:09.069Z,41.50
2018-07-08T10:14:39.590Z,40.00
2018-07-08T10:17:08.220Z,42.00
2018-07-08T10:19:37.464Z,40.10
2018-07-08T10:24:34.210Z,42.30
2018-07-08T11:53:27.229Z,51.20
2018-07-08T11:55:56.309Z,51.10
2018-07-08T11:58:25.226Z,52.60
2018-07-08T12:00:53.903Z,53.60
2018-07-08T12:03:23.437Z,50.70
2018-07-08T12:05:52.372Z,51.30
2018-07-08T12:08:21.165Z,52.40
2018-07-08T12:10:50.301Z,51.90
2018-07-08T12:13:19.246Z,53.60
2018-07-08T12:15:47.913Z,53.10
2018-07-08T12:18:17.979Z,54.00
2018-07-08T12:20:46.649Z,53.00
2018-07-08T12:23:15.532Z,52.90
2018-07-08T12:25:44.224Z,53.80
2018-07-08T12:28:13.996Z,53.60
2018-07-08T12:30:42.783Z,52.70
2018-07-08T12:33:12.495Z,51.10
2018-07-08T12:35:41.295Z,53.60
2018-07-08T12:38:09.997Z,52.60
2018-07-08T12:40:40.590Z,54.90
2018-07-08T12:43:09.234Z,52.00
2018-07-08T12:45:37.809Z,56.10
2018-07-08T12:48:06.657Z,54.30
2018-07-08T12:50:36.408Z,52.70
2018-07-08T12:53:05.147Z,53.50
2018-07-08T12:55:33.958Z,54.30
2018-07-08T12:58:03.139Z,52.50
2018-07-08T13:00:33.117Z,53.90
2018-07-08T13:03:01.993Z,55.50
2018-07-08T13:05:30.458Z,56.70
2018-07-08T13:07:59.304Z,55.90
2018-07-08T13:10:29.152Z,53.80
2018-07-08T13:12:58.252Z,54.20
2018-07-08T13:15:26.738Z,51.60
2018-07-08T13:17:55.540Z,53.10
2018-07-08T13:22:52.439Z,57.50
2018-07-08T13:25:20.997Z,55.50
2018-07-08T13:27:50.945Z,55.80
2018-07-08T13:30:19.740Z,58.30
2018-07-08T13:32:48.225Z,53.70
2018-07-08T13:35:17.096Z,56.10
2018-07-08T13:37:47.509Z,55.80
2018-07-08T13:40:16.313Z,54.60
2018-07-08T13:42:45.082Z,55.10
2018-07-08T13:45:13.849Z,54.10
2018-07-08T13:47:42.443Z,53.00
2018-07-08T13:50:12.315Z,52.40
2018-07-08T13:52:41.164Z,55.40
2018-07-08T13:55:11.598Z,56.00
2018-07-08T13:57:40.671Z,53.00
2018-07-08T14:00:09.753Z,55.00
2018-07-08T14:02:38.514Z,54.50
2018-07-08T14:05:07.983Z,54.10
2018-07-08T14:07:36.590Z,53.80
2018-07-08T14:10:05.223Z,54.10
2018-07-08T14:12:34.090Z,54.40
2018-07-08T14:15:03.170Z,54.20
2018-07-08T14:17:32.002Z,57.10
2018-07-08T14:20:00.616Z,56.20
2018-07-08T14:22:29.032Z,54.30
2018-07-08T14:24:57.617Z,55.70
2018-07-08T14:27:26.449Z,56.60
2018-07-08T14:29:55.227Z,55.00
2018-07-08T14:32:23.901Z,54.80
2018-07-08T14:34:53.283Z,54.00
2018-07-08T14:37:22.943Z,52.80
2018-07-08T14:39:51.710Z,51.70
2018-07-08T14:42:22.141Z,53.90
2018-07-08T14:44:50.831Z,55.50
2018-07-08T14:47:19.364Z,55.10
2018-07-08T14:49:48.191Z,54.70
2018-07-08T14:52:16.735Z,53.60
2018-07-08T14:54:45.673Z,53.20
2018-07-08T14:57:14.230Z,53.20
2018-07-08T14:59:42.752Z,53.50
2018-07-08T15:02:11.340Z,54.00
2018-07-08T15:04:40.009Z,54.00
2018-07-08T15:09:37.732Z,54.30
2018-07-08T15:12:06.459Z,55.00
2018-07-08T15:14:36.289Z,54.00
2018-07-08T15:17:04.760Z,52.80
2018-07-08T15:19:33.641Z,54.60
2018-07-08T15:22:02.350Z,54.60
2018-07-08T15:24:31.151Z,55.00
2018-07-08T15:27:01.384Z,55.50
2018-07-08T15:29:30.109Z,56.90
2018-07-08T15:31:59.230Z,57.60
2018-07-08T15:34:27.896Z,57.40
2018-07-08T15:36:56.634Z,57.20
2018-07-08T15:39:25.601Z,56.20
2018-07-08T15:41:54.290Z,56.10
2018-07-08T15:44:23.210Z,59.20
2018-07-08T15:46:51.797Z,61.40
2018-07-08T15:49:21.788Z,58.30
2018-07-08T15:51:52.101Z,58.80
2018-07-08T15:54:20.652Z,58.90
2018-07-08T15:56:49.450Z,57.10
2018-07-08T15:59:19.210Z,58.80
2018-07-08T16:01:47.840Z,57.20
2018-07-08T16:04:16.632Z,56.30
2018-07-08T16:06:48.533Z,59.50
2018-07-08T16:09:17.801Z,60.30
2018-07-08T16:11:46.632Z,59.00
2018-07-08T16:14:15.343Z,60.30
2018-07-08T16:16:44.370Z,59.90
2018-07-08T16:21:42.680Z,59.60
2018-07-08T16:24:11.998Z,57.70
2018-07-08T16:26:50.341Z,58.40
2018-07-08T16:31:48.051Z,59.00
2018-07-08T16:34:16.747Z,59.70
2018-07-08T16:36:45.518Z,56.60
2018-07-08T16:39:14.432Z,59.70
2018-07-08T16:41:43.396Z,59.00
2018-07-08T16:44:12.038Z,60.10
2018-07-08T16:46:40.627Z,58.60
2018-07-08T16:49:10.012Z,59.30
2018-07-08T16:51:39.566Z,56.20
2018-07-08T16:54:08.628Z,58.20
2018-07-08T16:56:37.400Z,55.10
2018-07-08T16:59:06.204Z,53.90
2018-07-08T17:01:35.093Z,54.30
2018-07-08T17:04:04.116Z,52.70
2018-07-08T17:06:32.802Z,53.00
2018-07-08T17:09:01.736Z,53.30
2018-07-08T17:11:30.780Z,52.70
2018-07-08T17:14:00.762Z,53.00
2018-07-08T17:16:29.294Z,53.70
2018-07-08T17:18:58.001Z,54.00
2018-07-08T17:21:26.577Z,52.90
2018-07-08T17:23:55.471Z,52.80
2018-07-08T17:26:24.946Z,53.40
2018-07-08T17:28:53.940Z,55.30
2018-07-08T17:31:22.531Z,55.00
2018-07-08T17:33:51.259Z,55.20
2018-07-08T17:36:20.217Z,52.80
2018-07-08T17:38:48.763Z,55.40
2018-07-08T17:41:17.640Z,54.30
2018-07-08T17:43:46.435Z,53.90
2018-07-08T17:46:15.406Z,54.60
2018-07-08T17:48:44.614Z,55.10
2018-07-08T17:51:13.065Z,52.60
2018-07-08T17:56:10.336Z,54.60
2018-07-08T17:58:39.331Z,55.60
2018-07-08T18:03:36.683Z,54.60
2018-07-08T18:08:34.804Z,53.80
2018-07-08T18:11:03.268Z,53.40
2018-07-08T18:13:31.776Z,53.40
2018-07-08T18:16:00.952Z,53.80
2018-07-08T18:18:30.988Z,53.90
2018-07-08T18:21:00.483Z,53.60
2018-07-08T18:23:28.982Z,53.40
2018-07-08T18:25:57.785Z,54.00
2018-07-08T18:28:26.542Z,53.80
2018-07-08T18:30:55.756Z,54.10
2018-07-08T18:33:24.541Z,54.00
2018-07-08T18:35:53.635Z,54.00
2018-07-08T18:38:22.605Z,54.10
2018-07-08T18:40:51.480Z,54.30
2018-07-08T18:45:48.636Z,54.30
2018-07-08T18:48:18.671Z,54.10
2018-07-08T18:50:47.278Z,54.20
2018-07-08T18:53:15.948Z,54.60
2018-07-08T18:55:44.848Z,54.60
2018-07-08T18:58:13.656Z,55.20
2018-07-08T19:00:42.299Z,55.20
2018-07-08T19:03:12.656Z,55.60
2018-07-08T19:06:10.326Z,55.80
2018-07-08T19:08:45.588Z,56.50
2018-07-08T19:11:23.079Z,57.50
2018-07-08T19:13:52.082Z,58.60
2018-07-08T19:16:20.730Z,59.10
2018-07-08T19:18:49.581Z,59.50
2018-07-08T19:21:18.592Z,59.80
2018-07-08T19:23:55.087Z,60.30
2018-07-08T19:26:26.231Z,61.10
2018-07-08T19:29:08.338Z,61.80
2018-07-08T19:31:43.256Z,62.60
2018-07-08T19:34:11.834Z,64.20
2018-07-08T19:39:10.918Z,64.10
2018-07-08T19:41:40.659Z,64.30
2018-07-08T19:44:09.455Z,65.90
2018-07-08T19:46:38.547Z,66.80
2018-07-08T19:49:07.713Z,66.70
2018-07-08T19:51:36.218Z,66.80
2018-07-08T19:54:04.945Z,67.50
2018-07-08T19:56:33.577Z,67.30
2018-07-08T19:59:02.895Z,68.00
2018-07-08T20:01:32.079Z,69.70
2018-07-08T20:04:01.583Z,69.90
2018-07-08T20:06:32.243Z,70.60
2018-07-08T20:09:00.777Z,71.30
2018-07-08T20:11:29.488Z,72.40
2018-07-08T20:14:02.604Z,73.60
2018-07-08T20:16:31.188Z,74.30
2018-07-08T20:18:59.877Z,75.80
2018-07-08T20:21:29.273Z,79.30
2018-07-08T20:23:58.088Z,78.50
2018-07-08T20:26:28.116Z,79.90
2018-07-08T20:28:56.916Z,81.50
2018-07-08T20:31:25.418Z,84.90
2018-07-08T20:33:54.289Z,86.70
2018-07-08T20:36:23.359Z,89.00
2018-07-08T20:38:52.160Z,90.40
2018-07-08T20:41:20.800Z,90.30
2018-07-08T20:43:49.876Z,90.60
2018-07-08T20:46:18.910Z,92.10
2018-07-08T20:48:48.539Z,93.30
2018-07-08T20:51:17.000Z,94.70
2018-07-08T20:53:45.437Z,96.00
2018-07-08T20:56:14.126Z,98.00
2018-07-08T20:58:42.980Z,98.10
2018-07-08T21:01:11.788Z,98.30
2018-07-08T21:03:41.156Z,99.90
2018-07-08T21:06:09.588Z,99.90
2018-07-08T21:08:38.033Z,99.90
2018-07-08T21:11:06.913Z,99.90
2018-07-08T21:13:35.900Z,99.90
2018-07-08T21:16:04.717Z,99.90
2018-07-08T21:18:33.529Z,99.90
2018-07-08T21:21:02.130Z,99.90
2018-07-08T21:23:31.028Z,99.90
2018-07-08T21:26:00.054Z,99.90
2018-07-08T21:28:29.216Z,99.90
2018-07-08T21:30:58.178Z,99.90
2018-07-08T21:33:27.234Z,99.90
2018-07-08T21:35:55.784Z,99.90
2018-07-08T21:40:52.817Z,99.90
2018-07-08T21:43:21.920Z,99.90
2018-07-08T21:45:51.524Z,99.90
2018-07-08T21:48:20.617Z,99.90
2018-07-08T21:50:49.632Z,99.90
2018-07-08T21:53:19.044Z,99.90
